sensor_id;sensor_type;location;lat;lon;timestamp;P1;durP1;ratioP1;P2;durP2;ratioP2
30048;SDS011;16879;50.852;15.602;2022-09-16T00:00:14;4.57;;;2.60;;
30048;SDS011;16879;50.852;15.602;2022-09-16T00:02:40;2.65;;;2.30;;
30048;SDS011;16879;50.852;15.602;2022-09-16T00:05:06;3.38;;;3.10;;
30048;SDS011;16879;50.852;15.602;2022-09-16T00:07:33;2.65;;;2.40;;
30048;SDS011;16879;50.852;15.602;2022-09-16T00:09:59;4.78;;;3.00;;
30048;SDS011;16879;50.852;15.602;2022-09-16T00:12:25;2.30;;;2.20;;
30048;SDS011;16879;50.852;15.602;2022-09-16T00:14:52;4.07;;;2.63;;
30048;SDS011;16879;50.852;15.602;2022-09-16T00:17:18;3.95;;;3.50;;
30048;SDS011;16879;50.852;15.602;2022-09-16T00:19:44;3.22;;;2.80;;
30048;SDS011;16879;50.852;15.602;2022-09-16T00:22:10;3.25;;;2.95;;
30048;SDS011;16879;50.852;15.602;2022-09-16T00:24:37;5.90;;;2.70;;
30048;SDS011;16879;50.852;15.602;2022-09-16T00:27:03;4.30;;;3.22;;
30048;SDS011;16879;50.852;15.602;2022-09-16T00:29:29;4.40;;;2.80;;
30048;SDS011;16879;50.852;15.602;2022-09-16T00:31:55;3.40;;;2.60;;
30048;SDS011;16879;50.852;15.602;2022-09-16T00:34:20;3.50;;;3.17;;
30048;SDS011;16879;50.852;15.602;2022-09-16T00:36:46;5.40;;;3.30;;
30048;SDS011;16879;50.852;15.602;2022-09-16T00:39:12;3.42;;;3.13;;
30048;SDS011;16879;50.852;15.602;2022-09-16T00:41:38;3.03;;;2.70;;
30048;SDS011;16879;50.852;15.602;2022-09-16T00:44:05;4.15;;;2.45;;
30048;SDS011;16879;50.852;15.602;2022-09-16T00:46:51;2.92;;;2.72;;
30048;SDS011;16879;50.852;15.602;2022-09-16T00:49:19;3.55;;;3.25;;
30048;SDS011;16879;50.852;15.602;2022-09-16T00:51:47;2.40;;;2.20;;
30048;SDS011;16879;50.852;15.602;2022-09-16T00:54:15;2.53;;;2.33;;
30048;SDS011;16879;50.852;15.602;2022-09-16T00:56:43;4.18;;;2.30;;
30048;SDS011;16879;50.852;15.602;2022-09-16T00:59:20;3.30;;;2.42;;
30048;SDS011;16879;50.852;15.602;2022-09-16T01:02:08;2.90;;;2.15;;
30048;SDS011;16879;50.852;15.602;2022-09-16T01:04:39;3.95;;;2.05;;
30048;SDS011;16879;50.852;15.602;2022-09-16T01:07:10;2.83;;;2.35;;
30048;SDS011;16879;50.852;15.602;2022-09-16T01:09:36;5.22;;;2.85;;
30048;SDS011;16879;50.852;15.602;2022-09-16T01:12:04;3.40;;;2.10;;
30048;SDS011;16879;50.852;15.602;2022-09-16T01:14:30;3.20;;;1.83;;
30048;SDS011;16879;50.852;15.602;2022-09-16T01:20:52;2.47;;;1.90;;
30048;SDS011;16879;50.852;15.602;2022-09-16T01:23:40;3.53;;;2.10;;
30048;SDS011;16879;50.852;15.602;2022-09-16T01:28:38;1.67;;;1.58;;
30048;SDS011;16879;50.852;15.602;2022-09-16T01:37:28;1.77;;;1.58;;
30048;SDS011;16879;50.852;15.602;2022-09-16T01:42:41;1.55;;;1.45;;
30048;SDS011;16879;50.852;15.602;2022-09-16T01:45:16;2.13;;;1.55;;
30048;SDS011;16879;50.852;15.602;2022-09-16T01:55:27;2.58;;;1.63;;
30048;SDS011;16879;50.852;15.602;2022-09-16T01:57:56;3.05;;;1.50;;
30048;SDS011;16879;50.852;15.602;2022-09-16T02:00:24;2.97;;;1.63;;
30048;SDS011;16879;50.852;15.602;2022-09-16T02:08:00;1.90;;;1.52;;
30048;SDS011;16879;50.852;15.602;2022-09-16T02:11:16;3.83;;;1.30;;
30048;SDS011;16879;50.852;15.602;2022-09-16T02:13:32;2.05;;;1.70;;
30048;SDS011;16879;50.852;15.602;2022-09-16T02:16:02;1.48;;;1.38;;
30048;SDS011;16879;50.852;15.602;2022-09-16T02:18:32;1.55;;;1.45;;
30048;SDS011;16879;50.852;15.602;2022-09-16T02:21:01;1.60;;;1.50;;
30048;SDS011;16879;50.852;15.602;2022-09-16T02:23:36;3.35;;;1.33;;
30048;SDS011;16879;50.852;15.602;2022-09-16T02:26:04;2.03;;;1.77;;
30048;SDS011;16879;50.852;15.602;2022-09-16T02:28:34;4.35;;;2.08;;
30048;SDS011;16879;50.852;15.602;2022-09-16T02:31:04;2.47;;;2.10;;
30048;SDS011;16879;50.852;15.602;2022-09-16T02:34:06;3.28;;;1.88;;
30048;SDS011;16879;50.852;15.602;2022-09-16T02:36:36;3.83;;;2.05;;
30048;SDS011;16879;50.852;15.602;2022-09-16T02:39:06;2.88;;;1.50;;
30048;SDS011;16879;50.852;15.602;2022-09-16T02:41:35;2.17;;;1.40;;
30048;SDS011;16879;50.852;15.602;2022-09-16T02:44:02;1.20;;;1.10;;
30048;SDS011;16879;50.852;15.602;2022-09-16T02:46:36;1.20;;;1.10;;
30048;SDS011;16879;50.852;15.602;2022-09-16T02:54:23;3.15;;;1.20;;
30048;SDS011;16879;50.852;15.602;2022-09-16T02:56:50;2.50;;;1.63;;
30048;SDS011;16879;50.852;15.602;2022-09-16T02:59:16;3.85;;;1.67;;
30048;SDS011;16879;50.852;15.602;2022-09-16T03:01:44;1.88;;;1.63;;
30048;SDS011;16879;50.852;15.602;2022-09-16T03:04:11;2.83;;;1.67;;
30048;SDS011;16879;50.852;15.602;2022-09-16T03:06:39;4.43;;;3.05;;
30048;SDS011;16879;50.852;15.602;2022-09-16T03:09:06;3.17;;;2.83;;
30048;SDS011;16879;50.852;15.602;2022-09-16T03:11:45;5.95;;;2.63;;
30048;SDS011;16879;50.852;15.602;2022-09-16T03:17:14;3.17;;;2.22;;
30048;SDS011;16879;50.852;15.602;2022-09-16T03:28:01;2.25;;;2.05;;
30048;SDS011;16879;50.852;15.602;2022-09-16T03:30:31;1.73;;;1.63;;
30048;SDS011;16879;50.852;15.602;2022-09-16T03:32:59;1.50;;;1.40;;
30048;SDS011;16879;50.852;15.602;2022-09-16T03:35:44;3.13;;;1.52;;
30048;SDS011;16879;50.852;15.602;2022-09-16T03:38:13;1.83;;;1.40;;
30048;SDS011;16879;50.852;15.602;2022-09-16T03:40:42;2.03;;;1.55;;
30048;SDS011;16879;50.852;15.602;2022-09-16T03:43:11;2.08;;;1.90;;
30048;SDS011;16879;50.852;15.602;2022-09-16T03:45:38;2.50;;;1.95;;
30048;SDS011;16879;50.852;15.602;2022-09-16T03:48:07;2.58;;;2.22;;
30048;SDS011;16879;50.852;15.602;2022-09-16T03:50:34;3.78;;;2.10;;
30048;SDS011;16879;50.852;15.602;2022-09-16T03:53:00;2.25;;;1.95;;
30048;SDS011;16879;50.852;15.602;2022-09-16T03:55:26;4.10;;;2.63;;
30048;SDS011;16879;50.852;15.602;2022-09-16T03:57:52;2.90;;;2.10;;
30048;SDS011;16879;50.852;15.602;2022-09-16T04:00:19;1.70;;;1.60;;
30048;SDS011;16879;50.852;15.602;2022-09-16T04:02:45;1.77;;;1.50;;
30048;SDS011;16879;50.852;15.602;2022-09-16T04:05:11;2.38;;;1.65;;
30048;SDS011;16879;50.852;15.602;2022-09-16T04:07:37;1.52;;;1.42;;
30048;SDS011;16879;50.852;15.602;2022-09-16T04:10:04;2.10;;;1.20;;
30048;SDS011;16879;50.852;15.602;2022-09-16T04:12:30;3.08;;;1.10;;
30048;SDS011;16879;50.852;15.602;2022-09-16T04:14:56;2.97;;;1.65;;
30048;SDS011;16879;50.852;15.602;2022-09-16T04:17:22;1.50;;;1.23;;
30048;SDS011;16879;50.852;15.602;2022-09-16T04:19:49;1.73;;;0.93;;
30048;SDS011;16879;50.852;15.602;2022-09-16T04:22:16;1.00;;;1.00;;
30048;SDS011;16879;50.852;15.602;2022-09-16T04:24:43;4.35;;;1.52;;
30048;SDS011;16879;50.852;15.602;2022-09-16T04:27:08;1.38;;;1.27;;
30048;SDS011;16879;50.852;15.602;2022-09-16T04:29:34;1.50;;;1.30;;
30048;SDS011;16879;50.852;15.602;2022-09-16T04:32:00;1.35;;;1.25;;
30048;SDS011;16879;50.852;15.602;2022-09-16T04:34:27;3.53;;;1.40;;
30048;SDS011;16879;50.852;15.602;2022-09-16T04:36:53;1.55;;;1.45;;
30048;SDS011;16879;50.852;15.602;2022-09-16T04:39:19;1.33;;;1.23;;
30048;SDS011;16879;50.852;15.602;2022-09-16T04:41:45;1.10;;;1.10;;
30048;SDS011;16879;50.852;15.602;2022-09-16T04:44:11;1.35;;;1.23;;
30048;SDS011;16879;50.852;15.602;2022-09-16T04:46:37;2.25;;;1.30;;
30048;SDS011;16879;50.852;15.602;2022-09-16T04:49:03;1.73;;;1.63;;
30048;SDS011;16879;50.852;15.602;2022-09-16T04:51:29;1.75;;;1.65;;
30048;SDS011;16879;50.852;15.602;2022-09-16T04:53:56;1.67;;;1.58;;
30048;SDS011;16879;50.852;15.602;2022-09-16T04:56:23;1.52;;;1.30;;
30048;SDS011;16879;50.852;15.602;2022-09-16T04:58:51;1.83;;;1.73;;
30048;SDS011;16879;50.852;15.602;2022-09-16T05:01:22;1.88;;;1.77;;
30048;SDS011;16879;50.852;15.602;2022-09-16T05:03:49;1.75;;;1.65;;
30048;SDS011;16879;50.852;15.602;2022-09-16T05:06:17;1.92;;;1.83;;
30048;SDS011;16879;50.852;15.602;2022-09-16T05:08:44;3.55;;;2.78;;
30048;SDS011;16879;50.852;15.602;2022-09-16T05:11:11;2.25;;;2.13;;
30048;SDS011;16879;50.852;15.602;2022-09-16T05:13:39;3.72;;;2.40;;
30048;SDS011;16879;50.852;15.602;2022-09-16T05:16:06;4.00;;;2.25;;
30048;SDS011;16879;50.852;15.602;2022-09-16T05:18:33;2.67;;;2.13;;
30048;SDS011;16879;50.852;15.602;2022-09-16T05:21:00;3.35;;;2.42;;
30048;SDS011;16879;50.852;15.602;2022-09-16T05:23:28;2.50;;;2.30;;
30048;SDS011;16879;50.852;15.602;2022-09-16T05:25:54;2.00;;;1.83;;
30048;SDS011;16879;50.852;15.602;2022-09-16T05:28:20;3.78;;;3.33;;
30048;SDS011;16879;50.852;15.602;2022-09-16T05:30:46;4.38;;;3.60;;
30048;SDS011;16879;50.852;15.602;2022-09-16T05:33:12;4.97;;;3.15;;
30048;SDS011;16879;50.852;15.602;2022-09-16T05:35:38;7.93;;;4.95;;
30048;SDS011;16879;50.852;15.602;2022-09-16T05:38:06;13.70;;;8.27;;
30048;SDS011;16879;50.852;15.602;2022-09-16T05:40:32;13.13;;;8.05;;
30048;SDS011;16879;50.852;15.602;2022-09-16T05:42:58;20.05;;;11.88;;
30048;SDS011;16879;50.852;15.602;2022-09-16T05:45:26;24.70;;;12.50;;
30048;SDS011;16879;50.852;15.602;2022-09-16T05:47:52;15.70;;;8.68;;
30048;SDS011;16879;50.852;15.602;2022-09-16T05:50:18;16.02;;;9.07;;
30048;SDS011;16879;50.852;15.602;2022-09-16T05:52:44;11.73;;;6.22;;
30048;SDS011;16879;50.852;15.602;2022-09-16T05:55:10;9.88;;;5.07;;
30048;SDS011;16879;50.852;15.602;2022-09-16T05:57:36;8.50;;;4.03;;
30048;SDS011;16879;50.852;15.602;2022-09-16T06:00:03;10.13;;;4.18;;
30048;SDS011;16879;50.852;15.602;2022-09-16T06:02:30;5.85;;;3.05;;
30048;SDS011;16879;50.852;15.602;2022-09-16T06:04:56;4.60;;;2.97;;
30048;SDS011;16879;50.852;15.602;2022-09-16T06:07:23;3.92;;;2.30;;
30048;SDS011;16879;50.852;15.602;2022-09-16T06:09:49;3.13;;;2.33;;
30048;SDS011;16879;50.852;15.602;2022-09-16T06:12:15;3.33;;;2.25;;
30048;SDS011;16879;50.852;15.602;2022-09-16T06:14:41;3.03;;;2.40;;
30048;SDS011;16879;50.852;15.602;2022-09-16T06:17:07;3.20;;;2.90;;
30048;SDS011;16879;50.852;15.602;2022-09-16T06:19:33;2.50;;;2.28;;
30048;SDS011;16879;50.852;15.602;2022-09-16T06:21:59;4.45;;;2.05;;
30048;SDS011;16879;50.852;15.602;2022-09-16T06:24:25;3.60;;;2.03;;
30048;SDS011;16879;50.852;15.602;2022-09-16T06:26:52;2.33;;;2.08;;
30048;SDS011;16879;50.852;15.602;2022-09-16T06:29:18;4.30;;;2.25;;
30048;SDS011;16879;50.852;15.602;2022-09-16T06:31:44;4.10;;;1.98;;
30048;SDS011;16879;50.852;15.602;2022-09-16T06:34:12;2.67;;;2.03;;
30048;SDS011;16879;50.852;15.602;2022-09-16T06:36:42;2.95;;;2.03;;
30048;SDS011;16879;50.852;15.602;2022-09-16T06:39:09;3.13;;;2.92;;
30048;SDS011;16879;50.852;15.602;2022-09-16T06:41:36;3.70;;;2.83;;
30048;SDS011;16879;50.852;15.602;2022-09-16T06:44:02;3.00;;;2.70;;
30048;SDS011;16879;50.852;15.602;2022-09-16T06:46:28;6.28;;;3.20;;
30048;SDS011;16879;50.852;15.602;2022-09-16T06:48:55;4.20;;;3.47;;
30048;SDS011;16879;50.852;15.602;2022-09-16T06:51:22;3.15;;;2.80;;
30048;SDS011;16879;50.852;15.602;2022-09-16T06:53:50;5.20;;;3.80;;
30048;SDS011;16879;50.852;15.602;2022-09-16T06:56:17;6.00;;;3.58;;
30048;SDS011;16879;50.852;15.602;2022-09-16T06:58:45;3.45;;;3.13;;
30048;SDS011;16879;50.852;15.602;2022-09-16T07:01:14;2.97;;;2.67;;
30048;SDS011;16879;50.852;15.602;2022-09-16T07:03:46;2.58;;;2.42;;
30048;SDS011;16879;50.852;15.602;2022-09-16T07:06:12;3.10;;;2.40;;
30048;SDS011;16879;50.852;15.602;2022-09-16T07:08:39;5.95;;;2.53;;
30048;SDS011;16879;50.852;15.602;2022-09-16T07:13:32;2.22;;;2.05;;
30048;SDS011;16879;50.852;15.602;2022-09-16T07:16:02;2.00;;;1.90;;
30048;SDS011;16879;50.852;15.602;2022-09-16T07:18:33;1.95;;;1.75;;
30048;SDS011;16879;50.852;15.602;2022-09-16T07:21:03;4.57;;;1.48;;
30048;SDS011;16879;50.852;15.602;2022-09-16T07:23:30;1.50;;;1.23;;
30048;SDS011;16879;50.852;15.602;2022-09-16T07:26:04;3.05;;;1.55;;
30048;SDS011;16879;50.852;15.602;2022-09-16T07:28:31;2.10;;;1.43;;
30048;SDS011;16879;50.852;15.602;2022-09-16T07:31:03;2.63;;;1.42;;
30048;SDS011;16879;50.852;15.602;2022-09-16T07:33:30;1.73;;;1.23;;
30048;SDS011;16879;50.852;15.602;2022-09-16T07:36:00;5.43;;;1.60;;
30048;SDS011;16879;50.852;15.602;2022-09-16T07:38:27;3.28;;;1.40;;
30048;SDS011;16879;50.852;15.602;2022-09-16T07:40:54;3.47;;;1.60;;
30048;SDS011;16879;50.852;15.602;2022-09-16T07:43:20;1.85;;;1.15;;
30048;SDS011;16879;50.852;15.602;2022-09-16T07:45:53;2.53;;;1.65;;
30048;SDS011;16879;50.852;15.602;2022-09-16T07:48:22;1.77;;;1.67;;
30048;SDS011;16879;50.852;15.602;2022-09-16T07:50:58;6.88;;;1.95;;
30048;SDS011;16879;50.852;15.602;2022-09-16T07:53:26;2.42;;;1.95;;
30048;SDS011;16879;50.852;15.602;2022-09-16T07:55:53;4.13;;;1.40;;
30048;SDS011;16879;50.852;15.602;2022-09-16T07:58:19;1.67;;;1.10;;
30048;SDS011;16879;50.852;15.602;2022-09-16T08:00:47;1.35;;;1.30;;
30048;SDS011;16879;50.852;15.602;2022-09-16T08:03:14;2.63;;;1.52;;
30048;SDS011;16879;50.852;15.602;2022-09-16T08:05:40;3.15;;;1.35;;
30048;SDS011;16879;50.852;15.602;2022-09-16T08:08:09;1.70;;;1.60;;
30048;SDS011;16879;50.852;15.602;2022-09-16T08:10:36;3.00;;;1.80;;
30048;SDS011;16879;50.852;15.602;2022-09-16T08:13:03;4.15;;;1.30;;
30048;SDS011;16879;50.852;15.602;2022-09-16T08:15:29;1.50;;;1.40;;
30048;SDS011;16879;50.852;15.602;2022-09-16T08:17:55;2.72;;;1.42;;
30048;SDS011;16879;50.852;15.602;2022-09-16T08:20:21;4.50;;;2.35;;
30048;SDS011;16879;50.852;15.602;2022-09-16T08:22:49;1.73;;;1.50;;
30048;SDS011;16879;50.852;15.602;2022-09-16T08:25:15;2.08;;;1.08;;
30048;SDS011;16879;50.852;15.602;2022-09-16T08:27:42;1.67;;;1.10;;
30048;SDS011;16879;50.852;15.602;2022-09-16T08:30:08;1.77;;;1.20;;
30048;SDS011;16879;50.852;15.602;2022-09-16T08:32:35;2.35;;;1.25;;
30048;SDS011;16879;50.852;15.602;2022-09-16T08:35:01;3.22;;;1.23;;
30048;SDS011;16879;50.852;15.602;2022-09-16T08:37:27;1.70;;;1.02;;
30048;SDS011;16879;50.852;15.602;2022-09-16T08:39:53;1.63;;;1.27;;
30048;SDS011;16879;50.852;15.602;2022-09-16T08:49:54;3.33;;;1.60;;
30048;SDS011;16879;50.852;15.602;2022-09-16T08:52:27;2.35;;;1.67;;
30048;SDS011;16879;50.852;15.602;2022-09-16T08:57:42;3.75;;;2.15;;
30048;SDS011;16879;50.852;15.602;2022-09-16T09:00:14;4.18;;;1.48;;
30048;SDS011;16879;50.852;15.602;2022-09-16T09:05:16;1.55;;;1.05;;
30048;SDS011;16879;50.852;15.602;2022-09-16T09:07:52;3.08;;;1.60;;
30048;SDS011;16879;50.852;15.602;2022-09-16T09:12:51;1.40;;;1.10;;
30048;SDS011;16879;50.852;15.602;2022-09-16T09:15:47;1.65;;;1.55;;
30048;SDS011;16879;50.852;15.602;2022-09-16T09:21:56;2.55;;;1.38;;
30048;SDS011;16879;50.852;15.602;2022-09-16T09:24:42;3.28;;;1.10;;
30048;SDS011;16879;50.852;15.602;2022-09-16T09:27:53;1.40;;;1.10;;
30048;SDS011;16879;50.852;15.602;2022-09-16T09:30:22;2.63;;;1.40;;
30048;SDS011;16879;50.852;15.602;2022-09-16T09:44:45;2.45;;;2.05;;
30048;SDS011;16879;50.852;15.602;2022-09-16T09:47:32;1.50;;;1.35;;
30048;SDS011;16879;50.852;15.602;2022-09-16T09:50:09;3.53;;;1.60;;
30048;SDS011;16879;50.852;15.602;2022-09-16T09:52:55;3.72;;;2.30;;
30048;SDS011;16879;50.852;15.602;2022-09-16T09:55:39;1.98;;;1.77;;
30048;SDS011;16879;50.852;15.602;2022-09-16T10:01:01;1.08;;;0.90;;
30048;SDS011;16879;50.852;15.602;2022-09-16T10:03:28;1.42;;;1.35;;
30048;SDS011;16879;50.852;15.602;2022-09-16T10:05:55;2.38;;;1.00;;
30048;SDS011;16879;50.852;15.602;2022-09-16T10:08:26;2.35;;;1.30;;
30048;SDS011;16879;50.852;15.602;2022-09-16T10:11:20;1.65;;;0.80;;
30048;SDS011;16879;50.852;15.602;2022-09-16T10:13:57;1.13;;;0.90;;
30048;SDS011;16879;50.852;15.602;2022-09-16T10:16:26;2.45;;;1.00;;
30048;SDS011;16879;50.852;15.602;2022-09-16T10:19:00;2.80;;;0.77;;
30048;SDS011;16879;50.852;15.602;2022-09-16T10:21:36;1.08;;;1.00;;
30048;SDS011;16879;50.852;15.602;2022-09-16T10:24:31;0.90;;;0.90;;
30048;SDS011;16879;50.852;15.602;2022-09-16T10:30:03;3.80;;;1.23;;
30048;SDS011;16879;50.852;15.602;2022-09-16T10:32:32;2.58;;;1.23;;
30048;SDS011;16879;50.852;15.602;2022-09-16T10:35:13;2.08;;;1.60;;
30048;SDS011;16879;50.852;15.602;2022-09-16T10:38:33;3.58;;;1.40;;
30048;SDS011;16879;50.852;15.602;2022-09-16T10:40:33;3.55;;;1.20;;
30048;SDS011;16879;50.852;15.602;2022-09-16T10:43:04;7.28;;;2.05;;
30048;SDS011;16879;50.852;15.602;2022-09-16T10:45:43;2.78;;;1.17;;
30048;SDS011;16879;50.852;15.602;2022-09-16T10:48:12;2.42;;;0.80;;
30048;SDS011;16879;50.852;15.602;2022-09-16T10:55:56;2.95;;;1.00;;
30048;SDS011;16879;50.852;15.602;2022-09-16T10:58:23;2.47;;;1.05;;
30048;SDS011;16879;50.852;15.602;2022-09-16T11:01:05;1.13;;;1.02;;
30048;SDS011;16879;50.852;15.602;2022-09-16T11:06:50;1.95;;;1.05;;
30048;SDS011;16879;50.852;15.602;2022-09-16T11:25:52;3.50;;;1.10;;
30048;SDS011;16879;50.852;15.602;2022-09-16T11:34:29;3.58;;;1.13;;
30048;SDS011;16879;50.852;15.602;2022-09-16T11:46:06;5.07;;;1.20;;
30048;SDS011;16879;50.852;15.602;2022-09-16T11:57:40;3.10;;;0.85;;
30048;SDS011;16879;50.852;15.602;2022-09-16T12:00:10;4.32;;;1.05;;
30048;SDS011;16879;50.852;15.602;2022-09-16T12:05:25;5.32;;;1.33;;
30048;SDS011;16879;50.852;15.602;2022-09-16T12:10:59;3.00;;;1.27;;
30048;SDS011;16879;50.852;15.602;2022-09-16T12:13:33;3.28;;;1.48;;
30048;SDS011;16879;50.852;15.602;2022-09-16T12:16:10;3.10;;;1.65;;
30048;SDS011;16879;50.852;15.602;2022-09-16T12:18:44;2.75;;;1.33;;
30048;SDS011;16879;50.852;15.602;2022-09-16T12:24:26;1.10;;;1.00;;
30048;SDS011;16879;50.852;15.602;2022-09-16T12:32:33;0.70;;;0.70;;
30048;SDS011;16879;50.852;15.602;2022-09-16T12:35:25;2.05;;;1.15;;
30048;SDS011;16879;50.852;15.602;2022-09-16T12:37:59;1.02;;;0.90;;
30048;SDS011;16879;50.852;15.602;2022-09-16T12:40:26;0.98;;;0.70;;
30048;SDS011;16879;50.852;15.602;2022-09-16T12:51:24;1.10;;;0.80;;
30048;SDS011;16879;50.852;15.602;2022-09-16T12:54:24;1.67;;;0.73;;
30048;SDS011;16879;50.852;15.602;2022-09-16T12:57:09;1.23;;;0.50;;
30048;SDS011;16879;50.852;15.602;2022-09-16T13:02:22;1.65;;;0.50;;
30048;SDS011;16879;50.852;15.602;2022-09-16T13:04:56;0.85;;;0.50;;
30048;SDS011;16879;50.852;15.602;2022-09-16T13:07:27;1.33;;;0.68;;
30048;SDS011;16879;50.852;15.602;2022-09-16T13:10:06;0.90;;;0.50;;
30048;SDS011;16879;50.852;15.602;2022-09-16T13:12:40;2.00;;;0.50;;
30048;SDS011;16879;50.852;15.602;2022-09-16T13:23:17;0.30;;;0.30;;
30048;SDS011;16879;50.852;15.602;2022-09-16T13:25:56;0.93;;;0.60;;
30048;SDS011;16879;50.852;15.602;2022-09-16T13:28:38;1.63;;;0.77;;
30048;SDS011;16879;50.852;15.602;2022-09-16T13:33:40;1.42;;;0.45;;
30048;SDS011;16879;50.852;15.602;2022-09-16T13:36:27;0.45;;;0.45;;
30048;SDS011;16879;50.852;15.602;2022-09-16T13:41:37;1.48;;;0.73;;
30048;SDS011;16879;50.852;15.602;2022-09-16T13:49:58;2.78;;;0.85;;
30048;SDS011;16879;50.852;15.602;2022-09-16T13:52:45;0.60;;;0.60;;
30048;SDS011;16879;50.852;15.602;2022-09-16T13:55:24;1.77;;;0.70;;
30048;SDS011;16879;50.852;15.602;2022-09-16T14:09:14;2.38;;;0.70;;
30048;SDS011;16879;50.852;15.602;2022-09-16T14:11:44;1.90;;;0.80;;
30048;SDS011;16879;50.852;15.602;2022-09-16T14:14:19;1.90;;;0.60;;
30048;SDS011;16879;50.852;15.602;2022-09-16T14:16:49;2.30;;;0.77;;
30048;SDS011;16879;50.852;15.602;2022-09-16T14:24:32;1.13;;;0.75;;
30048;SDS011;16879;50.852;15.602;2022-09-16T14:27:02;1.95;;;0.93;;
30048;SDS011;16879;50.852;15.602;2022-09-16T14:29:28;1.17;;;0.63;;
30048;SDS011;16879;50.852;15.602;2022-09-16T14:31:55;1.23;;;0.90;;
30048;SDS011;16879;50.852;15.602;2022-09-16T14:34:31;2.47;;;0.93;;
30048;SDS011;16879;50.852;15.602;2022-09-16T14:36:59;1.05;;;0.98;;
30048;SDS011;16879;50.852;15.602;2022-09-16T14:39:26;1.35;;;1.08;;
30048;SDS011;16879;50.852;15.602;2022-09-16T14:41:56;1.00;;;0.60;;
30048;SDS011;16879;50.852;15.602;2022-09-16T14:47:01;2.47;;;1.00;;
30048;SDS011;16879;50.852;15.602;2022-09-16T14:49:27;1.13;;;0.50;;
30048;SDS011;16879;50.852;15.602;2022-09-16T14:51:56;3.75;;;1.00;;
30048;SDS011;16879;50.852;15.602;2022-09-16T14:54:24;0.60;;;0.55;;
30048;SDS011;16879;50.852;15.602;2022-09-16T14:57:01;0.70;;;0.55;;
30048;SDS011;16879;50.852;15.602;2022-09-16T14:59:34;0.75;;;0.60;;
30048;SDS011;16879;50.852;15.602;2022-09-16T15:02:07;1.20;;;1.10;;
30048;SDS011;16879;50.852;15.602;2022-09-16T15:04:38;1.95;;;0.60;;
30048;SDS011;16879;50.852;15.602;2022-09-16T15:07:17;1.02;;;0.45;;
30048;SDS011;16879;50.852;15.602;2022-09-16T15:12:28;1.17;;;0.65;;
30048;SDS011;16879;50.852;15.602;2022-09-16T15:14:55;0.88;;;0.60;;
30048;SDS011;16879;50.852;15.602;2022-09-16T15:17:23;1.33;;;0.63;;
30048;SDS011;16879;50.852;15.602;2022-09-16T15:19:54;0.98;;;0.50;;
30048;SDS011;16879;50.852;15.602;2022-09-16T15:22:22;0.80;;;0.80;;
30048;SDS011;16879;50.852;15.602;2022-09-16T15:24:50;1.00;;;0.90;;
30048;SDS011;16879;50.852;15.602;2022-09-16T15:27:22;2.38;;;0.93;;
30048;SDS011;16879;50.852;15.602;2022-09-16T15:29:53;0.82;;;0.80;;
30048;SDS011;16879;50.852;15.602;2022-09-16T15:32:24;1.10;;;0.90;;
30048;SDS011;16879;50.852;15.602;2022-09-16T15:35:01;1.77;;;0.90;;
30048;SDS011;16879;50.852;15.602;2022-09-16T15:37:43;1.02;;;0.93;;
30048;SDS011;16879;50.852;15.602;2022-09-16T15:40:17;1.00;;;0.85;;
30048;SDS011;16879;50.852;15.602;2022-09-16T15:43:03;0.95;;;0.52;;
30048;SDS011;16879;50.852;15.602;2022-09-16T15:45:39;1.65;;;1.00;;
30048;SDS011;16879;50.852;15.602;2022-09-16T15:48:06;1.00;;;0.88;;
30048;SDS011;16879;50.852;15.602;2022-09-16T15:50:46;1.08;;;0.60;;
30048;SDS011;16879;50.852;15.602;2022-09-16T15:53:20;2.72;;;0.50;;
30048;SDS011;16879;50.852;15.602;2022-09-16T15:58:58;1.75;;;0.60;;
30048;SDS011;16879;50.852;15.602;2022-09-16T16:04:05;0.63;;;0.52;;
30048;SDS011;16879;50.852;15.602;2022-09-16T16:11:51;1.92;;;1.05;;
30048;SDS011;16879;50.852;15.602;2022-09-16T16:14:27;0.40;;;0.40;;
30048;SDS011;16879;50.852;15.602;2022-09-16T16:17:06;0.68;;;0.65;;
30048;SDS011;16879;50.852;15.602;2022-09-16T16:19:34;1.70;;;0.75;;
30048;SDS011;16879;50.852;15.602;2022-09-16T16:22:02;1.58;;;0.95;;
30048;SDS011;16879;50.852;15.602;2022-09-16T16:24:29;2.45;;;0.45;;
30048;SDS011;16879;50.852;15.602;2022-09-16T16:26:55;0.50;;;0.50;;
30048;SDS011;16879;50.852;15.602;2022-09-16T16:29:21;0.50;;;0.50;;
30048;SDS011;16879;50.852;15.602;2022-09-16T16:34:34;0.47;;;0.47;;
30048;SDS011;16879;50.852;15.602;2022-09-16T16:37:01;0.68;;;0.68;;
30048;SDS011;16879;50.852;15.602;2022-09-16T16:39:28;1.13;;;0.80;;
30048;SDS011;16879;50.852;15.602;2022-09-16T16:41:54;2.25;;;1.00;;
30048;SDS011;16879;50.852;15.602;2022-09-16T16:44:24;2.40;;;1.42;;
30048;SDS011;16879;50.852;15.602;2022-09-16T16:46:50;2.22;;;1.58;;
30048;SDS011;16879;50.852;15.602;2022-09-16T16:49:17;2.58;;;1.23;;
30048;SDS011;16879;50.852;15.602;2022-09-16T16:51:43;3.20;;;1.20;;
30048;SDS011;16879;50.852;15.602;2022-09-16T16:54:10;4.68;;;1.45;;
30048;SDS011;16879;50.852;15.602;2022-09-16T16:56:37;2.15;;;1.30;;
30048;SDS011;16879;50.852;15.602;2022-09-16T16:59:04;1.40;;;1.08;;
30048;SDS011;16879;50.852;15.602;2022-09-16T17:01:31;2.05;;;1.00;;
30048;SDS011;16879;50.852;15.602;2022-09-16T17:03:59;1.52;;;1.30;;
30048;SDS011;16879;50.852;15.602;2022-09-16T17:06:25;1.73;;;1.38;;
30048;SDS011;16879;50.852;15.602;2022-09-16T17:08:52;1.05;;;1.00;;
30048;SDS011;16879;50.852;15.602;2022-09-16T17:11:18;2.20;;;1.17;;
30048;SDS011;16879;50.852;15.602;2022-09-16T17:13:46;2.20;;;1.70;;
30048;SDS011;16879;50.852;15.602;2022-09-16T17:16:14;2.92;;;1.70;;
30048;SDS011;16879;50.852;15.602;2022-09-16T17:18:43;1.70;;;1.60;;
30048;SDS011;16879;50.852;15.602;2022-09-16T17:21:10;2.38;;;1.17;;
30048;SDS011;16879;50.852;15.602;2022-09-16T17:23:47;5.05;;;0.95;;
30048;SDS011;16879;50.852;15.602;2022-09-16T17:26:13;1.05;;;0.82;;
30048;SDS011;16879;50.852;15.602;2022-09-16T17:28:41;4.90;;;1.25;;
30048;SDS011;16879;50.852;15.602;2022-09-16T17:31:09;1.48;;;0.82;;
30048;SDS011;16879;50.852;15.602;2022-09-16T17:33:44;1.20;;;1.10;;
30048;SDS011;16879;50.852;15.602;2022-09-16T17:36:10;1.23;;;1.13;;
30048;SDS011;16879;50.852;15.602;2022-09-16T17:38:37;1.10;;;1.00;;
30048;SDS011;16879;50.852;15.602;2022-09-16T17:41:07;1.02;;;0.90;;
30048;SDS011;16879;50.852;15.602;2022-09-16T17:43:34;1.90;;;1.20;;
30048;SDS011;16879;50.852;15.602;2022-09-16T17:46:02;1.40;;;1.05;;
30048;SDS011;16879;50.852;15.602;2022-09-16T17:48:29;2.33;;;1.20;;
30048;SDS011;16879;50.852;15.602;2022-09-16T17:50:56;1.30;;;1.20;;
30048;SDS011;16879;50.852;15.602;2022-09-16T17:53:22;2.30;;;1.65;;
30048;SDS011;16879;50.852;15.602;2022-09-16T17:55:48;2.15;;;1.30;;
30048;SDS011;16879;50.852;15.602;2022-09-16T17:58:15;1.40;;;1.30;;
30048;SDS011;16879;50.852;15.602;2022-09-16T18:00:41;2.20;;;1.33;;
30048;SDS011;16879;50.852;15.602;2022-09-16T18:03:08;6.68;;;4.47;;
30048;SDS011;16879;50.852;15.602;2022-09-16T18:05:37;6.22;;;4.93;;
30048;SDS011;16879;50.852;15.602;2022-09-16T18:08:03;20.90;;;15.07;;
30048;SDS011;16879;50.852;15.602;2022-09-16T18:10:30;18.02;;;14.05;;
30048;SDS011;16879;50.852;15.602;2022-09-16T18:12:56;21.67;;;18.05;;
30048;SDS011;16879;50.852;15.602;2022-09-16T18:15:22;32.50;;;24.60;;
30048;SDS011;16879;50.852;15.602;2022-09-16T18:17:49;22.60;;;20.20;;
30048;SDS011;16879;50.852;15.602;2022-09-16T18:20:15;24.92;;;20.00;;
30048;SDS011;16879;50.852;15.602;2022-09-16T18:22:41;19.48;;;13.73;;